Time;durP1;ratioP1;P1;durP2;ratioP2;P2;SDS_P1;SDS_P2;PMS_P1;PMS_P2;Temp;Humidity;BMP_temperature;BMP_pressure;BME280_temperature;BME280_humidity;BME280_pressure;Samples;Min_cycle;Max_cycle;Signal;HPM_P1;HPM_P2
2022/11/27 00:01:36;;;;;;;8.30;3.60;;;9.50;99.90;;;;;;5026781;28;20197;-33
2022/11/27 00:04:04;;;;;;;10.23;3.97;;;9.50;99.90;;;;;;5027316;28;20742;-33
2022/11/27 00:06:33;;;;;;;8.30;3.60;;;9.50;99.90;;;;;;5026829;28;20200;-33
2022/11/27 00:09:09;;;;;;;8.90;4.03;;;9.40;99.90;;;;;;5027019;28;20882;-32
2022/11/27 00:11:39;;;;;;;8.17;3.63;;;9.50;99.90;;;;;;5026632;28;20731;-31
2022/11/27 00:14:07;;;;;;;11.77;4.90;;;9.50;99.90;;;;;;5026550;28;20336;-31
2022/11/27 00:16:34;;;;;;;6.70;3.50;;;9.50;99.90;;;;;;5026785;28;20209;-31
2022/11/27 00:19:01;;;;;;;8.83;3.73;;;9.50;99.90;;;;;;5026999;28;20209;-31
2022/11/27 00:21:37;;;;;;;9.13;4.07;;;9.50;99.90;;;;;;5026643;28;20220;-31
2022/11/27 00:24:08;;;;;;;10.23;4.00;;;9.50;99.90;;;;;;5026287;28;20236;-31
2022/11/27 00:26:37;;;;;;;8.87;3.73;;;9.50;99.90;;;;;;5026352;28;20197;-32
2022/11/27 00:29:06;;;;;;;8.47;3.20;;;9.50;99.90;;;;;;5026550;28;20216;-32
2022/11/27 00:31:36;;;;;;;9.20;4.00;;;9.50;99.90;;;;;;5026342;28;20297;-31
2022/11/27 00:34:07;;;;;;;10.20;3.73;;;9.50;99.90;;;;;;5025127;28;20201;-31
2022/11/27 00:36:37;;;;;;;7.97;3.93;;;9.50;99.90;;;;;;5026243;28;20205;-31
2022/11/27 00:39:10;;;;;;;7.87;4.03;;;9.50;99.90;;;;;;5024767;28;20244;-31
2022/11/27 00:41:40;;;;;;;7.13;3.60;;;9.50;99.90;;;;;;5026260;28;20204;-31
2022/11/27 00:44:12;;;;;;;6.43;3.47;;;9.50;99.90;;;;;;5027042;28;20225;-31
2022/11/27 00:46:40;;;;;;;7.40;3.77;;;9.50;99.90;;;;;;5026166;28;20765;-31
2022/11/27 00:49:10;;;;;;;7.47;3.40;;;9.50;99.90;;;;;;5026001;28;20469;-32
2022/11/27 00:51:39;;;;;;;10.10;3.53;;;9.50;99.90;;;;;;5024517;28;20201;-32
2022/11/27 00:54:07;;;;;;;9.60;3.73;;;9.50;99.90;;;;;;5026497;28;20629;-31
2022/11/27 00:56:37;;;;;;;7.60;3.47;;;9.50;99.90;;;;;;5026013;28;20307;-31
2022/11/27 00:59:07;;;;;;;5.83;3.33;;;9.50;99.90;;;;;;5028662;28;20223;-32
2022/11/27 01:01:37;;;;;;;9.27;3.50;;;9.50;99.90;;;;;;5030277;28;20311;-31
2022/11/27 01:04:07;;;;;;;8.23;3.10;;;9.50;99.90;;;;;;5030105;28;20311;-31
2022/11/27 01:06:37;;;;;;;7.83;3.50;;;9.60;99.90;;;;;;5028808;28;20303;-31
2022/11/27 01:09:04;;;;;;;6.17;3.27;;;9.50;99.90;;;;;;5029894;28;20258;-31
2022/11/27 01:11:33;;;;;;;6.90;2.90;;;9.50;99.90;;;;;;5030071;28;20222;-31
2022/11/27 01:14:07;;;;;;;7.17;2.53;;;9.50;99.90;;;;;;5030144;28;20295;-31
2022/11/27 01:16:37;;;;;;;9.63;2.90;;;9.50;99.90;;;;;;5045020;28;20240;-31
2022/11/27 01:19:10;;;;;;;7.47;3.00;;;9.50;99.90;;;;;;5029892;28;20672;-32
2022/11/27 01:21:40;;;;;;;6.10;2.47;;;9.50;99.90;;;;;;5029740;28;20300;-31
2022/11/27 01:24:09;;;;;;;9.67;3.23;;;9.50;99.90;;;;;;5029834;28;20820;-31
2022/11/27 01:26:38;;;;;;;5.53;2.70;;;9.50;99.90;;;;;;5029743;28;20212;-31
2022/11/27 01:29:08;;;;;;;7.53;2.77;;;9.50;99.90;;;;;;5029974;28;20228;-32
2022/11/27 01:31:38;;;;;;;5.43;2.50;;;9.50;99.90;;;;;;5029479;28;20236;-32
2022/11/27 01:34:11;;;;;;;9.07;2.60;;;9.50;99.90;;;;;;5029628;28;20213;-31
2022/11/27 01:36:38;;;;;;;7.60;3.03;;;9.50;99.90;;;;;;5044568;28;20193;-31
2022/11/27 01:39:15;;;;;;;5.90;2.40;;;9.50;99.90;;;;;;5044686;28;20243;-31
2022/11/27 01:41:43;;;;;;;5.93;2.67;;;9.50;99.90;;;;;;5029438;28;20298;-31
2022/11/27 01:44:22;;;;;;;4.60;2.30;;;9.50;99.90;;;;;;5027759;28;20646;-31
2022/11/27 01:46:53;;;;;;;6.23;2.50;;;9.50;99.90;;;;;;5029824;28;20200;-31
2022/11/27 01:49:34;;;;;;;4.97;2.43;;;9.50;99.90;;;;;;5029252;28;20283;-32
2022/11/27 01:52:15;;;;;;;5.07;2.20;;;9.50;99.90;;;;;;5029296;28;20292;-32
2022/11/27 01:55:07;;;;;;;4.67;1.97;;;9.50;99.90;;;;;;5029196;28;20200;-32
2022/11/27 01:57:43;;;;;;;6.30;2.03;;;9.50;99.90;;;;;;5028144;28;20308;-31
2022/11/27 02:00:13;;;;;;;5.33;2.00;;;9.40;99.90;;;;;;4989802;28;20229;-31
2022/11/27 02:02:44;;;;;;;5.87;1.97;;;9.50;99.90;;;;;;4993091;28;20214;-31
2022/11/27 02:05:18;;;;;;;4.93;2.27;;;9.40;99.90;;;;;;5003540;28;20225;-31
2022/11/27 02:07:46;;;;;;;7.63;2.20;;;9.40;99.90;;;;;;4995235;28;20325;-32
2022/11/27 02:10:16;;;;;;;5.33;1.90;;;9.40;99.90;;;;;;5009033;28;20205;-31
2022/11/27 02:13:27;;;;;;;5.20;1.90;;;9.40;99.90;;;;;;5008904;28;20770;-32
2022/11/27 02:16:21;;;;;;;5.90;2.17;;;9.40;99.90;;;;;;4995262;28;20643;-32
2022/11/27 02:19:17;;;;;;;5.70;2.13;;;9.40;99.90;;;;;;4996841;28;20232;-32
2022/11/27 02:22:00;;;;;;;4.67;1.63;;;9.40;99.90;;;;;;4998246;28;20224;-32
2022/11/27 02:24:53;;;;;;;3.90;1.60;;;9.40;99.90;;;;;;5008516;28;20236;-31
2022/11/27 02:27:50;;;;;;;5.77;1.77;;;9.40;99.90;;;;;;5008485;28;20288;-32
2022/11/27 02:30:18;;;;;;;5.63;2.00;;;9.40;99.90;;;;;;5007999;28;20201;-31
2022/11/27 02:33:10;;;;;;;3.43;2.17;;;9.30;99.90;;;;;;5008533;28;20216;-31
2022/11/27 02:35:46;;;;;;;4.30;1.90;;;9.40;99.90;;;;;;5008207;28;20284;-31
2022/11/27 02:38:24;;;;;;;4.20;2.10;;;9.40;99.90;;;;;;5008207;28;20650;-32
2022/11/27 02:40:57;;;;;;;5.17;2.03;;;9.40;99.90;;;;;;5023147;28;20209;-32
2022/11/27 02:43:52;;;;;;;4.40;1.83;;;9.40;99.90;;;;;;5008573;28;20307;-31
2022/11/27 02:46:19;;;;;;;4.17;2.10;;;9.40;99.90;;;;;;5007597;28;20267;-31
2022/11/27 02:48:56;;;;;;;4.03;2.10;;;9.40;99.90;;;;;;5023245;28;20256;-31
2022/11/27 02:51:36;;;;;;;4.23;2.30;;;9.40;99.90;;;;;;5008622;28;20209;-32
2022/11/27 02:54:09;;;;;;;3.77;2.23;;;9.40;99.90;;;;;;5023421;28;20232;-31
2022/11/27 02:56:39;;;;;;;5.23;2.10;;;9.30;99.90;;;;;;5008628;28;20255;-31
2022/11/27 02:59:10;;;;;;;6.33;2.27;;;9.40;99.90;;;;;;5008331;28;20209;-31
2022/11/27 03:01:43;;;;;;;5.10;2.37;;;9.40;99.90;;;;;;5008247;28;20219;-31
2022/11/27 03:04:22;;;;;;;3.37;1.80;;;9.40;99.90;;;;;;5008436;28;20236;-31
2022/11/27 03:06:54;;;;;;;5.20;2.30;;;9.40;99.90;;;;;;5008137;28;20281;-32
2022/11/27 03:09:42;;;;;;;7.03;2.80;;;9.40;99.90;;;;;;5008259;28;20284;-32
2022/11/27 03:12:16;;;;;;;4.43;2.17;;;9.40;99.90;;;;;;5007775;28;20570;-31
2022/11/27 03:14:47;;;;;;;4.17;2.40;;;9.40;99.90;;;;;;5007812;28;20206;-31
2022/11/27 03:17:30;;;;;;;3.63;2.10;;;9.40;99.90;;;;;;5008285;28;20632;-31
2022/11/27 03:20:04;;;;;;;3.77;2.30;;;9.40;99.90;;;;;;5007928;28;20209;-31
2022/11/27 03:22:36;;;;;;;5.43;2.60;;;9.40;99.90;;;;;;5007028;28;20193;-32
2022/11/27 03:25:04;;;;;;;4.93;2.40;;;9.40;99.90;;;;;;5007554;28;20608;-32
2022/11/27 03:27:48;;;;;;;5.33;2.07;;;9.40;99.90;;;;;;5007596;28;20226;-31
2022/11/27 03:30:16;;;;;;;7.30;2.50;;;9.40;99.90;;;;;;5022526;28;20210;-31
2022/11/27 03:32:46;;;;;;;9.13;3.30;;;9.40;99.90;;;;;;5022514;28;20911;-31
2022/11/27 03:35:23;;;;;;;5.93;2.60;;;9.40;99.90;;;;;;5007670;28;20306;-31
2022/11/27 03:37:55;;;;;;;4.57;2.53;;;9.40;99.90;;;;;;5007287;28;20762;-32
2022/11/27 03:40:30;;;;;;;9.33;2.93;;;9.40;99.90;;;;;;5022297;28;20229;-31
2022/11/27 03:43:12;;;;;;;4.50;2.70;;;9.40;99.90;;;;;;5005984;28;20666;-32
2022/11/27 03:45:53;;;;;;;5.93;3.00;;;9.40;99.90;;;;;;5007281;28;20733;-32
2022/11/27 03:48:30;;;;;;;4.03;2.53;;;9.40;99.90;;;;;;5007150;28;20332;-31
2022/11/27 03:51:20;;;;;;;5.33;2.60;;;9.40;99.90;;;;;;5007382;28;20205;-32
2022/11/27 03:54:15;;;;;;;6.83;3.03;;;9.40;99.90;;;;;;5007158;28;20723;-32
2022/11/27 03:57:07;;;;;;;5.87;2.47;;;9.40;99.90;;;;;;5007655;28;20201;-32
2022/11/27 03:59:42;;;;;;;6.00;2.63;;;9.50;99.90;;;;;;5007180;28;20244;-32
2022/11/27 04:02:24;;;;;;;8.60;2.90;;;9.50;99.90;;;;;;5007478;28;20232;-32
2022/11/27 04:04:51;;;;;;;6.20;3.20;;;9.50;99.90;;;;;;5007352;28;20235;-31
2022/11/27 04:07:18;;;;;;;6.87;2.73;;;9.50;99.90;;;;;;5021685;28;20289;-32
2022/11/27 04:09:48;;;;;;;6.63;2.93;;;9.50;99.90;;;;;;5006506;28;20213;-32
2022/11/27 04:12:20;;;;;;;8.07;3.33;;;9.50;99.90;;;;;;5021207;28;20296;-32
2022/11/27 04:14:47;;;;;;;8.20;3.70;;;9.50;99.90;;;;;;5006612;28;20320;-32
2022/11/27 04:17:16;;;;;;;7.63;3.50;;;9.50;99.90;;;;;;5007014;28;20212;-32
2022/11/27 04:19:43;;;;;;;7.07;3.17;;;9.60;99.90;;;;;;5006214;28;20695;-31
2022/11/27 04:22:13;;;;;;;7.20;3.40;;;9.60;99.90;;;;;;5006608;28;20672;-32
2022/11/27 04:24:42;;;;;;;7.17;3.60;;;9.60;99.90;;;;;;5006513;28;20357;-31
2022/11/27 04:27:14;;;;;;;6.77;3.13;;;9.60;99.90;;;;;;5006207;28;20225;-32
2022/11/27 04:29:41;;;;;;;7.97;3.03;;;9.60;99.90;;;;;;5006240;28;20190;-32
2022/11/27 04:32:08;;;;;;;4.80;2.97;;;9.60;99.90;;;;;;5006028;28;20700;-32
2022/11/27 04:34:35;;;;;;;8.70;3.60;;;9.60;99.90;;;;;;5006059;28;20859;-31
2022/11/27 04:37:04;;;;;;;7.90;3.60;;;9.60;99.90;;;;;;5006088;28;20688;-31
2022/11/27 04:39:34;;;;;;;6.93;3.87;;;9.60;99.90;;;;;;5006437;28;20201;-31
2022/11/27 04:42:01;;;;;;;6.50;3.57;;;9.60;99.90;;;;;;5006338;28;20316;-31
2022/11/27 04:44:30;;;;;;;6.57;3.20;;;9.70;99.90;;;;;;5006080;28;20320;-32
2022/11/27 04:47:01;;;;;;;7.47;3.70;;;9.70;99.90;;;;;;5006384;28;20200;-31
2022/11/27 04:49:36;;;;;;;8.40;3.63;;;9.70;99.90;;;;;;5020961;28;20705;-31
2022/11/27 04:52:04;;;;;;;9.23;4.03;;;9.70;99.90;;;;;;5006120;28;20296;-32
2022/11/27 04:54:31;;;;;;;8.87;3.87;;;9.70;99.90;;;;;;5006174;28;20205;-31
2022/11/27 04:57:00;;;;;;;9.10;4.20;;;9.70;99.90;;;;;;5006161;28;20205;-32
2022/11/27 04:59:30;;;;;;;10.27;4.20;;;9.70;99.90;;;;;;5020822;28;20752;-32
2022/11/27 05:01:59;;;;;;;8.63;3.77;;;9.70;99.90;;;;;;5006004;28;20219;-32
2022/11/27 05:04:29;;;;;;;10.03;4.30;;;9.80;99.90;;;;;;5005754;28;20225;-32
2022/11/27 05:06:56;;;;;;;11.20;4.73;;;9.80;99.90;;;;;;5021246;28;20197;-32
2022/11/27 05:09:26;;;;;;;12.07;5.30;;;9.80;99.90;;;;;;5006365;28;20208;-32
2022/11/27 05:11:55;;;;;;;9.20;4.33;;;9.80;99.90;;;;;;5006829;28;20606;-32
2022/11/27 05:14:27;;;;;;;8.03;4.10;;;9.80;99.90;;;;;;5006558;28;20241;-33
2022/11/27 05:16:59;;;;;;;10.77;4.23;;;9.80;99.90;;;;;;5021339;28;20205;-32
2022/11/27 05:19:31;;;;;;;10.70;4.63;;;9.80;99.90;;;;;;5006604;28;20197;-32
2022/11/27 05:22:01;;;;;;;8.73;4.30;;;9.80;99.90;;;;;;5006148;28;20600;-32
2022/11/27 05:24:29;;;;;;;9.70;4.33;;;9.80;99.90;;;;;;5006016;28;20591;-33
2022/11/27 05:26:56;;;;;;;8.30;4.00;;;9.80;99.90;;;;;;5006098;28;20202;-32
2022/11/27 05:29:26;;;;;;;6.40;3.83;;;9.80;99.90;;;;;;5006707;28;20236;-33
2022/11/27 05:32:00;;;;;;;10.93;4.37;;;9.80;99.90;;;;;;5020432;28;20201;-33
2022/11/27 05:34:27;;;;;;;9.80;4.60;;;9.80;99.90;;;;;;5005995;28;20293;-32
2022/11/27 05:36:59;;;;;;;7.03;4.00;;;9.80;99.90;;;;;;5005601;28;20218;-32
2022/11/27 05:39:28;;;;;;;8.77;4.00;;;9.80;99.90;;;;;;5006416;28;20220;-31
2022/11/27 05:41:55;;;;;;;10.43;4.37;;;9.80;99.90;;;;;;5005919;28;20206;-31
2022/11/27 05:44:22;;;;;;;8.47;4.27;;;9.80;99.90;;;;;;5006826;28;20751;-31
2022/11/27 05:46:50;;;;;;;8.10;4.17;;;9.80;99.90;;;;;;5009648;28;20256;-31
2022/11/27 05:49:17;;;;;;;7.73;4.20;;;9.80;99.90;;;;;;5009083;28;20238;-32
2022/11/27 05:51:44;;;;;;;6.80;4.10;;;9.90;99.90;;;;;;5009592;28;20287;-31
2022/11/27 05:54:24;;;;;;;6.50;4.20;;;9.90;99.90;;;;;;5009395;28;20224;-31
2022/11/27 05:56:51;;;;;;;7.83;3.87;;;9.80;99.90;;;;;;5009504;28;20218;-32
2022/11/27 05:59:19;;;;;;;10.10;3.80;;;9.90;99.90;;;;;;5009592;28;20636;-32
2022/11/27 06:01:48;;;;;;;10.17;4.60;;;9.90;99.90;;;;;;5007500;28;20205;-31
2022/11/27 06:04:15;;;;;;;7.77;4.53;;;9.90;99.90;;;;;;5009356;28;20667;-32
2022/11/27 06:06:43;;;;;;;8.53;3.97;;;9.90;99.90;;;;;;5009023;28;20205;-32
2022/11/27 06:09:10;;;;;;;10.47;4.60;;;9.90;99.90;;;;;;5009097;28;20926;-30
2022/11/27 06:11:41;;;;;;;10.77;4.60;;;9.90;99.90;;;;;;5009174;28;20692;-30
2022/11/27 06:14:10;;;;;;;10.63;4.60;;;9.90;99.90;;;;;;5007718;28;20296;-30
2022/11/27 06:16:38;;;;;;;8.40;4.47;;;9.90;99.90;;;;;;5008833;28;20206;-30
2022/11/27 06:19:06;;;;;;;10.73;5.07;;;9.90;99.90;;;;;;5008942;28;20208;-30
2022/11/27 06:21:36;;;;;;;9.07;3.93;;;9.90;99.90;;;;;;5008842;28;20233;-30
2022/11/27 06:24:03;;;;;;;8.27;4.23;;;9.90;99.90;;;;;;5009130;28;20197;-30
2022/11/27 06:26:40;;;;;;;8.57;4.40;;;9.90;99.90;;;;;;5009056;28;20237;-30
2022/11/27 06:29:08;;;;;;;7.93;4.00;;;9.90;99.90;;;;;;5008705;28;20193;-30
2022/11/27 06:31:35;;;;;;;7.63;4.03;;;9.90;99.90;;;;;;5023395;28;20593;-30
2022/11/27 06:34:03;;;;;;;8.33;3.80;;;9.90;99.90;;;;;;5008971;28;20617;-30
2022/11/27 06:36:35;;;;;;;6.67;3.80;;;9.90;99.90;;;;;;5009423;28;20567;-30
2022/11/27 06:39:07;;;;;;;10.90;4.73;;;9.90;99.90;;;;;;5008956;28;20214;-31
2022/11/27 06:41:35;;;;;;;7.33;4.20;;;9.90;99.90;;;;;;5008988;28;20233;-30
2022/11/27 06:44:04;;;;;;;8.60;4.30;;;9.90;99.90;;;;;;5008985;28;20288;-30
2022/11/27 06:46:33;;;;;;;9.63;4.37;;;9.90;99.90;;;;;;5008388;28;20249;-30
2022/11/27 06:49:03;;;;;;;9.13;4.63;;;9.90;99.90;;;;;;5008688;28;20799;-30
2022/11/27 06:51:31;;;;;;;8.70;4.33;;;9.90;99.90;;;;;;5008202;28;20198;-30
2022/11/27 06:54:02;;;;;;;9.50;4.50;;;9.90;99.90;;;;;;5008562;28;20207;-30
2022/11/27 06:56:32;;;;;;;7.13;3.67;;;9.90;99.90;;;;;;5007174;28;20249;-30
2022/11/27 06:59:03;;;;;;;7.50;3.90;;;9.90;99.90;;;;;;5008359;28;20212;-30
2022/11/27 07:01:33;;;;;;;9.07;4.30;;;9.90;99.90;;;;;;5008095;28;20209;-30
2022/11/27 07:04:05;;;;;;;7.60;4.10;;;9.90;99.90;;;;;;5008304;28;20205;-30
2022/11/27 07:06:32;;;;;;;6.10;3.20;;;9.90;99.90;;;;;;5007968;28;20701;-30
2022/11/27 07:09:02;;;;;;;9.87;4.20;;;9.90;99.90;;;;;;5008190;28;20607;-30
2022/11/27 07:11:35;;;;;;;8.87;4.90;;;9.90;99.90;;;;;;5008073;28;20205;-30
2022/11/27 07:14:04;;;;;;;8.13;4.10;;;9.90;99.90;;;;;;5007974;28;20193;-30
2022/11/27 07:16:33;;;;;;;6.90;3.93;;;9.90;99.90;;;;;;5008125;28;20229;-30
2022/11/27 07:19:07;;;;;;;7.10;3.53;;;9.90;99.90;;;;;;5022330;28;20420;-30
2022/11/27 07:21:39;;;;;;;7.37;3.60;;;9.90;99.90;;;;;;5007226;28;20272;-30
2022/11/27 07:24:11;;;;;;;7.03;3.90;;;9.90;99.90;;;;;;5005664;28;20223;-30
2022/11/27 07:26:38;;;;;;;8.50;4.10;;;9.90;99.90;;;;;;5007308;28;20225;-30
2022/11/27 07:29:05;;;;;;;6.33;3.70;;;9.90;99.90;;;;;;5007406;28;20230;-30
2022/11/27 07:31:32;;;;;;;7.30;3.60;;;9.90;99.90;;;;;;5007223;28;20636;-30
2022/11/27 07:34:01;;;;;;;9.70;3.80;;;9.90;99.90;;;;;;5007687;28;20279;-30
2022/11/27 07:36:37;;;;;;;7.83;3.83;;;9.90;99.90;;;;;;5022428;28;20983;-30
2022/11/27 07:39:07;;;;;;;8.50;3.70;;;9.90;99.90;;;;;;5007366;28;20296;-31
2022/11/27 07:41:34;;;;;;;8.47;3.60;;;9.90;99.90;;;;;;5007048;28;20308;-32
2022/11/27 07:44:03;;;;;;;6.43;3.60;;;9.90;99.90;;;;;;5007334;28;20208;-32
2022/11/27 07:46:31;;;;;;;8.73;3.63;;;9.90;99.90;;;;;;5006891;28;20299;-30
2022/11/27 07:49:00;;;;;;;7.17;3.50;;;9.90;99.90;;;;;;5006650;28;20803;-30
2022/11/27 07:51:28;;;;;;;6.07;3.53;;;9.90;99.90;;;;;;5006748;28;20225;-30
2022/11/27 07:54:00;;;;;;;7.27;3.33;;;10.00;99.90;;;;;;5006821;28;20604;-30
2022/11/27 07:56:32;;;;;;;6.53;3.60;;;10.00;99.90;;;;;;5007069;28;20205;-30
2022/11/27 07:59:01;;;;;;;5.53;3.33;;;10.00;99.90;;;;;;5007163;28;20209;-31
2022/11/27 08:01:28;;;;;;;6.10;3.20;;;10.00;99.90;;;;;;5006537;28;20237;-31
2022/11/27 08:03:58;;;;;;;6.37;3.20;;;10.00;99.90;;;;;;5021272;28;20276;-31
2022/11/27 08:06:26;;;;;;;5.60;3.17;;;10.00;99.90;;;;;;5006473;28;20508;-31
2022/11/27 08:08:56;;;;;;;9.27;3.10;;;10.00;99.90;;;;;;5006608;28;20289;-31
2022/11/27 08:11:26;;;;;;;5.87;3.00;;;10.00;99.90;;;;;;5006655;28;20698;-31
2022/11/27 08:14:00;;;;;;;6.40;3.40;;;10.00;99.90;;;;;;5006226;28;20700;-31
2022/11/27 08:16:30;;;;;;;5.90;3.53;;;10.00;99.90;;;;;;5021223;28;20194;-31
2022/11/27 08:19:00;;;;;;;4.33;2.67;;;10.10;99.90;;;;;;5006530;28;20563;-31
2022/11/27 08:21:31;;;;;;;5.43;3.53;;;10.10;99.90;;;;;;5006303;28;20743;-30
2022/11/27 08:24:05;;;;;;;6.37;3.63;;;10.10;99.90;;;;;;5006424;28;20223;-32
2022/11/27 08:26:35;;;;;;;5.40;3.20;;;10.10;99.90;;;;;;5006176;28;20720;-34
2022/11/27 08:29:06;;;;;;;6.33;3.50;;;10.10;99.90;;;;;;5006705;28;20263;-34
2022/11/27 08:31:36;;;;;;;8.40;3.50;;;10.10;99.90;;;;;;5006633;28;20292;-34
2022/11/27 08:34:04;;;;;;;6.07;3.30;;;10.10;99.90;;;;;;5021194;28;20197;-33
2022/11/27 08:36:31;;;;;;;5.67;3.43;;;10.10;99.90;;;;;;5006688;28;20239;-33
2022/11/27 08:38:59;;;;;;;6.20;3.20;;;10.10;99.90;;;;;;5021112;28;20227;-31
2022/11/27 08:41:26;;;;;;;5.77;3.17;;;10.10;99.90;;;;;;5006318;28;20213;-31
2022/11/27 08:43:53;;;;;;;6.53;3.30;;;10.10;99.90;;;;;;5006080;28;20236;-31
2022/11/27 08:46:20;;;;;;;5.53;3.27;;;10.10;99.90;;;;;;5006319;28;20249;-31
2022/11/27 08:48:50;;;;;;;5.87;3.40;;;10.20;99.90;;;;;;5005749;28;20226;-31
2022/11/27 08:51:18;;;;;;;5.90;3.50;;;10.20;99.90;;;;;;5005897;28;20259;-31
2022/11/27 08:53:49;;;;;;;7.57;3.73;;;10.20;99.90;;;;;;5006112;28;20225;-32
2022/11/27 08:56:23;;;;;;;5.80;3.20;;;10.20;99.90;;;;;;5005979;28;20202;-31
2022/11/27 08:58:53;;;;;;;7.60;3.47;;;10.20;99.90;;;;;;5021309;28;20992;-31
2022/11/27 09:01:28;;;;;;;6.83;3.40;;;10.30;99.90;;;;;;5006076;28;20291;-31
2022/11/27 09:03:55;;;;;;;6.93;3.47;;;10.30;99.90;;;;;;5005927;28;20232;-31
2022/11/27 09:06:29;;;;;;;8.87;3.50;;;10.30;99.90;;;;;;5005772;28;20261;-31
2022/11/27 09:08:59;;;;;;;6.37;3.63;;;10.30;99.90;;;;;;5005925;28;20198;-32
2022/11/27 09:11:30;;;;;;;5.27;3.23;;;10.30;99.90;;;;;;5005702;28;20606;-32
2022/11/27 09:14:00;;;;;;;6.03;3.00;;;10.30;99.90;;;;;;5020479;28;20863;-31
2022/11/27 09:16:29;;;;;;;5.23;3.43;;;10.30;99.90;;;;;;5006017;28;20285;-31
2022/11/27 09:18:57;;;;;;;5.80;3.27;;;10.30;99.90;;;;;;5006020;28;20296;-30
2022/11/27 09:21:30;;;;;;;7.40;3.30;;;10.30;99.90;;;;;;5009770;28;20296;-31
2022/11/27 09:24:02;;;;;;;7.07;3.30;;;10.40;99.90;;;;;;5024805;28;20229;-30
2022/11/27 09:26:29;;;;;;;6.20;3.70;;;10.40;99.90;;;;;;5024519;28;20217;-30
2022/11/27 09:29:00;;;;;;;6.90;3.73;;;10.40;99.90;;;;;;5009661;28;20305;-30
2022/11/27 09:31:36;;;;;;;8.73;3.47;;;10.40;99.90;;;;;;5009692;28;20503;-30
2022/11/27 09:34:08;;;;;;;7.57;3.50;;;10.40;99.90;;;;;;5009770;28;20204;-30
2022/11/27 09:36:35;;;;;;;8.33;3.40;;;10.40;99.90;;;;;;5009282;28;20237;-30
2022/11/27 09:39:03;;;;;;;6.93;3.17;;;10.40;99.90;;;;;;5009554;28;20237;-30
2022/11/27 09:41:47;;;;;;;5.17;3.40;;;10.50;99.90;;;;;;5009201;28;20233;-31
2022/11/27 09:44:37;;;;;;;7.10;3.60;;;10.50;99.90;;;;;;5009675;28;20562;-31
2022/11/27 09:47:24;;;;;;;7.47;4.07;;;10.50;99.90;;;;;;5009284;28;20245;-31
2022/11/27 09:50:00;;;;;;;6.07;3.53;;;10.50;99.90;;;;;;5009383;28;20809;-30
2022/11/27 09:52:48;;;;;;;6.63;3.73;;;10.50;99.90;;;;;;5009240;28;20236;-31
2022/11/27 09:55:47;;;;;;;6.20;3.50;;;10.50;99.90;;;;;;5008963;28;20293;-31
2022/11/27 09:58:26;;;;;;;5.53;3.50;;;10.50;99.90;;;;;;5008087;28;20632;-31
2022/11/27 10:00:53;;;;;;;6.90;3.70;;;10.50;99.90;;;;;;5009232;28;20531;-30
2022/11/27 10:03:24;;;;;;;7.33;3.70;;;10.50;99.90;;;;;;5008987;28;20277;-30
2022/11/27 10:06:22;;;;;;;9.00;3.93;;;10.50;99.90;;;;;;5009668;28;20257;-30
2022/11/27 10:09:15;;;;;;;5.70;3.53;;;10.60;99.90;;;;;;5024280;28;20263;-30
2022/11/27 10:11:59;;;;;;;4.57;3.40;;;10.60;99.90;;;;;;5009366;28;20190;-30
2022/11/27 10:15:05;;;;;;;6.57;3.50;;;10.60;99.90;;;;;;5009294;28;20798;-30
2022/11/27 10:17:51;;;;;;;7.97;4.13;;;10.60;99.90;;;;;;5009176;28;20201;-30
2022/11/27 10:20:39;;;;;;;7.43;3.93;;;10.60;99.90;;;;;;5009327;28;20193;-31
2022/11/27 10:23:34;;;;;;;6.00;3.77;;;10.60;99.90;;;;;;5023911;28;20636;-30
2022/11/27 10:26:14;;;;;;;7.10;4.50;;;10.60;99.90;;;;;;5009127;28;20312;-30
2022/11/27 10:29:04;;;;;;;5.70;3.50;;;10.60;99.90;;;;;;5008668;28;20193;-30
2022/11/27 10:31:40;;;;;;;6.10;4.20;;;10.60;99.90;;;;;;5008291;28;20232;-30
2022/11/27 10:34:29;;;;;;;7.30;4.00;;;10.70;99.90;;;;;;5008961;28;20282;-30
2022/11/27 10:37:06;;;;;;;7.27;3.87;;;10.70;99.90;;;;;;5008925;28;20300;-30
2022/11/27 10:39:46;;;;;;;7.13;4.40;;;10.70;99.90;;;;;;5009029;28;20692;-30
2022/11/27 10:42:36;;;;;;;6.90;4.20;;;10.80;99.90;;;;;;5008661;28;20245;-31
2022/11/27 10:45:07;;;;;;;7.90;4.13;;;10.80;99.90;;;;;;5008241;28;20688;-30
2022/11/27 10:47:37;;;;;;;6.33;4.10;;;10.80;99.90;;;;;;5008468;28;20275;-30
2022/11/27 10:50:13;;;;;;;8.43;3.97;;;10.80;99.90;;;;;;5008202;28;20256;-30
2022/11/27 10:52:54;;;;;;;5.80;3.80;;;10.80;99.90;;;;;;5006761;28;20296;-30
2022/11/27 10:56:00;;;;;;;7.07;4.07;;;10.90;99.90;;;;;;5008943;28;20210;-30
2022/11/27 10:58:41;;;;;;;5.87;4.17;;;10.90;99.90;;;;;;4998130;28;20680;-30
2022/11/27 11:01:15;;;;;;;6.40;3.90;;;10.90;99.90;;;;;;5008086;28;20233;-30
2022/11/27 11:03:42;;;;;;;7.20;3.87;;;10.90;99.90;;;;;;5023426;28;20213;-30
2022/11/27 11:06:24;;;;;;;9.37;4.13;;;10.90;99.90;;;;;;5008161;28;20229;-30
2022/11/27 11:09:28;;;;;;;8.00;3.93;;;11.00;99.90;;;;;;5008088;28;20204;-31
2022/11/27 11:12:19;;;;;;;6.77;3.87;;;11.00;99.90;;;;;;4997139;28;20593;-32
2022/11/27 11:14:58;;;;;;;9.00;4.27;;;11.00;99.90;;;;;;5022954;28;20206;-31
2022/11/27 11:17:36;;;;;;;6.00;4.00;;;11.00;99.90;;;;;;5007681;28;20198;-31
2022/11/27 11:20:20;;;;;;;8.90;4.00;;;11.00;99.90;;;;;;5007771;28;20680;-30
2022/11/27 11:22:53;;;;;;;8.40;4.43;;;11.10;99.90;;;;;;5007942;28;20259;-31
2022/11/27 11:25:22;;;;;;;6.07;4.10;;;11.10;99.90;;;;;;5022704;28;20225;-31
2022/11/27 11:27:51;;;;;;;7.43;4.10;;;11.10;99.90;;;;;;5022745;28;20229;-31
2022/11/27 11:30:25;;;;;;;7.07;4.00;;;11.10;99.90;;;;;;5007796;28;20206;-31
2022/11/27 11:33:00;;;;;;;6.20;3.97;;;11.10;99.90;;;;;;5007889;28;20696;-31
2022/11/27 11:35:36;;;;;;;10.33;4.23;;;11.10;99.90;;;;;;5008105;28;20205;-32
2022/11/27 11:38:15;;;;;;;7.67;4.20;;;11.20;99.90;;;;;;5007785;28;20215;-31
2022/11/27 11:40:55;;;;;;;5.70;3.97;;;11.20;99.90;;;;;;5022482;28;20232;-31
2022/11/27 11:43:32;;;;;;;8.70;4.30;;;11.20;99.90;;;;;;5006722;28;20190;-31
2022/11/27 11:46:16;;;;;;;9.27;3.90;;;11.20;99.90;;;;;;5007770;28;20245;-32
2022/11/27 11:48:55;;;;;;;6.13;3.60;;;11.20;99.90;;;;;;5007288;28;20639;-31
2022/11/27 11:51:36;;;;;;;5.40;4.20;;;11.20;99.90;;;;;;5007379;28;20205;-30
2022/11/27 11:54:36;;;;;;;8.23;4.17;;;11.20;99.90;;;;;;5022472;28;20242;-32
2022/11/27 11:57:21;;;;;;;5.53;3.87;;;11.30;99.90;;;;;;5022253;28;20209;-31
2022/11/27 12:00:16;;;;;;;6.87;3.93;;;11.30;99.90;;;;;;5007834;28;20296;-31
2022/11/27 12:03:04;;;;;;;8.17;3.93;;;11.40;99.90;;;;;;5006331;28;20673;-31
2022/11/27 12:05:50;;;;;;;5.27;3.90;;;11.40;99.90;;;;;;5007006;28;20225;-31
2022/11/27 12:08:34;;;;;;;7.03;3.90;;;11.50;99.90;;;;;;5007125;28;20210;-32
2022/11/27 12:11:20;;;;;;;6.23;4.73;;;11.50;99.90;;;;;;5021651;28;20999;-32
2022/11/27 12:14:16;;;;;;;7.17;4.23;;;11.40;99.90;;;;;;5006535;28;20295;-32
2022/11/27 12:17:10;;;;;;;6.57;4.20;;;11.50;99.90;;;;;;4995789;28;20311;-32
2022/11/27 12:20:11;;;;;;;7.30;4.53;;;11.50;99.90;;;;;;5006698;28;20210;-32
2022/11/27 12:23:24;;;;;;;5.83;4.27;;;11.50;99.90;;;;;;5006531;28;20221;-31
2022/11/27 12:26:29;;;;;;;6.50;4.10;;;11.50;99.90;;;;;;5004806;28;20205;-32
2022/11/27 12:29:02;;;;;;;8.87;4.50;;;11.50;99.90;;;;;;5006546;28;20692;-32
2022/11/27 12:31:47;;;;;;;6.50;4.10;;;11.60;99.90;;;;;;5006464;28;20209;-31
2022/11/27 12:34:31;;;;;;;5.40;4.13;;;11.50;99.90;;;;;;5006898;28;20208;-31
2022/11/27 12:37:08;;;;;;;8.23;4.23;;;11.50;99.90;;;;;;5006856;28;20208;-32
2022/11/27 12:40:08;;;;;;;8.13;4.40;;;11.50;99.90;;;;;;5020585;28;20272;-32
2022/11/27 12:42:53;;;;;;;7.03;4.17;;;11.50;99.90;;;;;;4997914;28;20296;-31
2022/11/27 12:45:28;;;;;;;6.57;4.30;;;11.50;99.90;;;;;;5006540;28;20204;-31
2022/11/27 12:48:15;;;;;;;7.80;4.77;;;11.50;99.90;;;;;;5006205;28;20233;-30
2022/11/27 12:50:55;;;;;;;7.07;4.63;;;11.50;99.90;;;;;;5021529;28;20213;-30
2022/11/27 12:53:31;;;;;;;6.20;4.13;;;11.60;99.90;;;;;;5007788;28;20205;-32
2022/11/27 12:56:13;;;;;;;6.60;4.30;;;11.60;99.90;;;;;;5010465;28;20641;-31
2022/11/27 12:58:46;;;;;;;9.23;5.53;;;11.60;99.90;;;;;;5010155;28;20197;-31
2022/11/27 13:01:25;;;;;;;7.83;5.03;;;11.60;99.90;;;;;;5010252;28;20324;-32
2022/11/27 13:04:32;;;;;;;6.90;5.37;;;11.60;99.90;;;;;;5010393;28;20200;-31
2022/11/27 13:07:10;;;;;;;7.17;4.83;;;11.60;99.90;;;;;;5009825;28;20729;-32
2022/11/27 13:10:28;;;;;;;8.53;4.67;;;11.60;99.90;;;;;;5009700;28;20207;-31
2022/11/27 13:13:03;;;;;;;9.80;4.70;;;11.50;99.90;;;;;;5005132;28;20313;-31
2022/11/27 13:15:47;;;;;;;7.00;4.33;;;11.50;99.90;;;;;;5009697;28;20213;-31
2022/11/27 13:18:25;;;;;;;6.20;5.00;;;11.50;99.90;;;;;;5009593;28;20291;-30
2022/11/27 13:20:57;;;;;;;7.90;4.70;;;11.50;99.90;;;;;;5009262;28;20259;-32
2022/11/27 13:23:31;;;;;;;8.23;4.60;;;11.50;99.90;;;;;;5009905;28;20308;-30
2022/11/27 13:26:04;;;;;;;7.17;4.70;;;11.50;99.90;;;;;;5009580;28;20284;-32
2022/11/27 13:28:40;;;;;;;6.83;4.67;;;11.50;99.90;;;;;;5009353;28;20684;-31
2022/11/27 13:31:18;;;;;;;5.73;4.43;;;11.50;99.90;;;;;;5009801;28;20914;-31
2022/11/27 13:33:49;;;;;;;6.37;4.60;;;11.50;99.90;;;;;;5009595;28;20204;-32